sensor_id;sensor_type;location;lat;lon;timestamp;P1;durP1;ratioP1;P2;durP2;ratioP2
50086;SDS011;35967;50.718;7.050;2022-07-22T00:04:25;11.37;;;5.13;;
50086;SDS011;35967;50.718;7.050;2022-07-22T00:14:27;11.57;;;5.03;;
50086;SDS011;35967;50.718;7.050;2022-07-22T00:24:29;14.83;;;5.13;;
50086;SDS011;35967;50.718;7.050;2022-07-22T00:34:31;11.27;;;4.27;;
50086;SDS011;35967;50.718;7.050;2022-07-22T00:44:33;20.70;;;8.63;;
50086;SDS011;35967;50.718;7.050;2022-07-22T00:54:38;12.27;;;5.57;;
50086;SDS011;35967;50.718;7.050;2022-07-22T01:04:40;17.90;;;5.23;;
50086;SDS011;35967;50.718;7.050;2022-07-22T01:14:42;17.50;;;4.40;;
50086;SDS011;35967;50.718;7.050;2022-07-22T01:24:44;18.30;;;6.87;;
50086;SDS011;35967;50.718;7.050;2022-07-22T01:34:46;18.17;;;4.67;;
50086;SDS011;35967;50.718;7.050;2022-07-22T01:44:48;18.73;;;5.10;;
50086;SDS011;35967;50.718;7.050;2022-07-22T01:54:50;14.70;;;3.80;;
50086;SDS011;35967;50.718;7.050;2022-07-22T02:04:52;13.57;;;3.87;;
50086;SDS011;35967;50.718;7.050;2022-07-22T02:14:54;12.57;;;3.13;;
50086;SDS011;35967;50.718;7.050;2022-07-22T02:24:57;14.77;;;3.50;;
50086;SDS011;35967;50.718;7.050;2022-07-22T02:35:00;8.60;;;3.00;;
50086;SDS011;35967;50.718;7.050;2022-07-22T02:45:05;17.80;;;4.23;;
50086;SDS011;35967;50.718;7.050;2022-07-22T02:55:08;13.07;;;4.07;;
50086;SDS011;35967;50.718;7.050;2022-07-22T03:05:10;12.63;;;3.97;;
50086;SDS011;35967;50.718;7.050;2022-07-22T03:25:19;18.87;;;4.30;;
50086;SDS011;35967;50.718;7.050;2022-07-22T03:35:21;13.63;;;3.90;;
50086;SDS011;35967;50.718;7.050;2022-07-22T03:45:23;13.93;;;4.13;;
50086;SDS011;35967;50.718;7.050;2022-07-22T03:55:26;13.20;;;3.97;;
50086;SDS011;35967;50.718;7.050;2022-07-22T04:05:30;9.77;;;4.40;;
50086;SDS011;35967;50.718;7.050;2022-07-22T04:15:33;10.10;;;4.20;;
50086;SDS011;35967;50.718;7.050;2022-07-22T04:25:35;11.60;;;4.60;;
50086;SDS011;35967;50.718;7.050;2022-07-22T04:35:38;12.70;;;4.70;;
50086;SDS011;35967;50.718;7.050;2022-07-22T04:55:48;11.47;;;5.00;;
50086;SDS011;35967;50.718;7.050;2022-07-22T05:05:50;11.50;;;4.90;;
50086;SDS011;35967;50.718;7.050;2022-07-22T05:16:03;14.53;;;4.97;;
50086;SDS011;35967;50.718;7.050;2022-07-22T05:26:08;9.10;;;4.23;;
50086;SDS011;35967;50.718;7.050;2022-07-22T05:36:11;9.87;;;4.00;;
50086;SDS011;35967;50.718;7.050;2022-07-22T05:46:20;10.87;;;3.70;;
50086;SDS011;35967;50.718;7.050;2022-07-22T05:56:23;9.70;;;4.30;;
50086;SDS011;35967;50.718;7.050;2022-07-22T06:06:25;7.27;;;3.47;;
50086;SDS011;35967;50.718;7.050;2022-07-22T06:16:29;9.03;;;3.40;;
50086;SDS011;35967;50.718;7.050;2022-07-22T06:26:35;7.10;;;2.63;;
50086;SDS011;35967;50.718;7.050;2022-07-22T06:36:38;11.23;;;2.67;;
50086;SDS011;35967;50.718;7.050;2022-07-22T06:46:40;7.37;;;2.93;;
50086;SDS011;35967;50.718;7.050;2022-07-22T06:56:42;10.13;;;3.47;;
50086;SDS011;35967;50.718;7.050;2022-07-22T07:06:50;9.33;;;2.93;;
50086;SDS011;35967;50.718;7.050;2022-07-22T07:17:07;5.85;;;2.03;;
50086;SDS011;35967;50.718;7.050;2022-07-22T07:27:13;30.07;;;16.33;;
50086;SDS011;35967;50.718;7.050;2022-07-22T07:37:16;7.80;;;3.78;;
50086;SDS011;35967;50.718;7.050;2022-07-22T07:47:18;10.80;;;5.73;;
50086;SDS011;35967;50.718;7.050;2022-07-22T07:57:24;11.27;;;5.33;;
50086;SDS011;35967;50.718;7.050;2022-07-22T08:07:26;11.53;;;6.23;;
50086;SDS011;35967;50.718;7.050;2022-07-22T08:17:32;11.40;;;5.90;;
50086;SDS011;35967;50.718;7.050;2022-07-22T08:27:37;12.93;;;7.88;;
50086;SDS011;35967;50.718;7.050;2022-07-22T08:37:39;11.93;;;8.23;;
50086;SDS011;35967;50.718;7.050;2022-07-22T08:47:46;13.30;;;7.90;;
50086;SDS011;35967;50.718;7.050;2022-07-22T08:57:56;15.52;;;7.80;;
50086;SDS011;35967;50.718;7.050;2022-07-22T09:07:58;17.55;;;8.13;;
50086;SDS011;35967;50.718;7.050;2022-07-22T09:18:17;12.75;;;8.80;;
50086;SDS011;35967;50.718;7.050;2022-07-22T09:28:55;14.18;;;8.70;;
50086;SDS011;35967;50.718;7.050;2022-07-22T09:39:02;13.18;;;9.48;;
50086;SDS011;35967;50.718;7.050;2022-07-22T09:49:34;17.95;;;10.65;;
50086;SDS011;35967;50.718;7.050;2022-07-22T10:00:18;14.80;;;10.00;;
50086;SDS011;35967;50.718;7.050;2022-07-22T10:10:30;18.45;;;10.90;;
50086;SDS011;35967;50.718;7.050;2022-07-22T10:20:33;18.38;;;14.43;;
50086;SDS011;35967;50.718;7.050;2022-07-22T10:30:36;15.23;;;10.88;;
50086;SDS011;35967;50.718;7.050;2022-07-22T10:40:47;19.70;;;11.75;;
50086;SDS011;35967;50.718;7.050;2022-07-22T10:50:52;20.90;;;13.13;;
50086;SDS011;35967;50.718;7.050;2022-07-22T11:00:57;22.13;;;13.83;;
50086;SDS011;35967;50.718;7.050;2022-07-22T11:11:01;21.50;;;13.60;;
50086;SDS011;35967;50.718;7.050;2022-07-22T11:21:03;17.52;;;13.88;;
50086;SDS011;35967;50.718;7.050;2022-07-22T11:31:14;17.75;;;14.52;;
50086;SDS011;35967;50.718;7.050;2022-07-22T11:41:18;18.48;;;14.25;;
50086;SDS011;35967;50.718;7.050;2022-07-22T11:51:20;18.20;;;12.52;;
50086;SDS011;35967;50.718;7.050;2022-07-22T12:01:26;26.88;;;21.02;;
50086;SDS011;35967;50.718;7.050;2022-07-22T12:11:29;20.25;;;17.10;;
50086;SDS011;35967;50.718;7.050;2022-07-22T12:21:32;23.88;;;19.95;;
50086;SDS011;35967;50.718;7.050;2022-07-22T12:31:55;18.38;;;14.02;;
50086;SDS011;35967;50.718;7.050;2022-07-22T12:41:58;25.65;;;18.50;;
50086;SDS011;35967;50.718;7.050;2022-07-22T12:52:13;27.02;;;18.58;;
50086;SDS011;35967;50.718;7.050;2022-07-22T13:02:15;17.10;;;12.07;;
50086;SDS011;35967;50.718;7.050;2022-07-22T13:12:22;15.40;;;11.60;;
50086;SDS011;35967;50.718;7.050;2022-07-22T13:22:23;18.23;;;13.18;;
50086;SDS011;35967;50.718;7.050;2022-07-22T13:32:25;11.10;;;9.52;;
50086;SDS011;35967;50.718;7.050;2022-07-22T13:42:47;10.65;;;8.77;;
50086;SDS011;35967;50.718;7.050;2022-07-22T13:52:49;15.30;;;10.88;;
50086;SDS011;35967;50.718;7.050;2022-07-22T14:02:51;12.13;;;8.32;;
50086;SDS011;35967;50.718;7.050;2022-07-22T14:12:54;11.45;;;7.30;;
50086;SDS011;35967;50.718;7.050;2022-07-22T14:22:55;14.50;;;8.23;;
50086;SDS011;35967;50.718;7.050;2022-07-22T14:32:57;10.32;;;7.70;;
50086;SDS011;35967;50.718;7.050;2022-07-22T14:42:59;8.55;;;6.20;;
50086;SDS011;35967;50.718;7.050;2022-07-22T14:53:21;9.57;;;6.32;;
50086;SDS011;35967;50.718;7.050;2022-07-22T15:03:23;10.15;;;7.32;;
50086;SDS011;35967;50.718;7.050;2022-07-22T15:13:25;10.55;;;7.68;;
50086;SDS011;35967;50.718;7.050;2022-07-22T15:23:27;11.73;;;6.95;;
50086;SDS011;35967;50.718;7.050;2022-07-22T15:33:32;10.68;;;7.15;;
50086;SDS011;35967;50.718;7.050;2022-07-22T15:43:39;14.93;;;7.40;;
50086;SDS011;35967;50.718;7.050;2022-07-22T15:53:42;8.40;;;5.53;;
50086;SDS011;35967;50.718;7.050;2022-07-22T16:03:43;14.20;;;5.72;;
50086;SDS011;35967;50.718;7.050;2022-07-22T16:13:47;6.53;;;5.20;;
50086;SDS011;35967;50.718;7.050;2022-07-22T16:23:49;7.05;;;4.82;;
50086;SDS011;35967;50.718;7.050;2022-07-22T16:33:53;9.70;;;5.28;;
50086;SDS011;35967;50.718;7.050;2022-07-22T16:43:56;7.93;;;5.18;;
50086;SDS011;35967;50.718;7.050;2022-07-22T16:53:58;14.73;;;6.35;;
50086;SDS011;35967;50.718;7.050;2022-07-22T17:04:00;8.43;;;5.35;;
50086;SDS011;35967;50.718;7.050;2022-07-22T17:14:02;7.60;;;5.25;;
50086;SDS011;35967;50.718;7.050;2022-07-22T17:24:04;10.20;;;4.85;;
50086;SDS011;35967;50.718;7.050;2022-07-22T17:34:06;9.70;;;5.20;;
50086;SDS011;35967;50.718;7.050;2022-07-22T17:44:08;7.70;;;4.18;;
50086;SDS011;35967;50.718;7.050;2022-07-22T17:54:13;11.50;;;5.80;;
50086;SDS011;35967;50.718;7.050;2022-07-22T18:04:15;7.47;;;4.60;;
50086;SDS011;35967;50.718;7.050;2022-07-22T18:14:16;7.00;;;4.65;;
50086;SDS011;35967;50.718;7.050;2022-07-22T18:24:19;9.35;;;5.03;;
50086;SDS011;35967;50.718;7.050;2022-07-22T18:34:20;9.00;;;4.68;;
50086;SDS011;35967;50.718;7.050;2022-07-22T18:44:22;10.48;;;5.57;;
50086;SDS011;35967;50.718;7.050;2022-07-22T18:54:24;10.40;;;6.15;;
50086;SDS011;35967;50.718;7.050;2022-07-22T19:04:26;6.63;;;5.03;;
50086;SDS011;35967;50.718;7.050;2022-07-22T19:14:28;10.00;;;6.03;;
50086;SDS011;35967;50.718;7.050;2022-07-22T19:24:30;9.13;;;6.35;;
50086;SDS011;35967;50.718;7.050;2022-07-22T19:34:35;10.77;;;6.13;;
50086;SDS011;35967;50.718;7.050;2022-07-22T19:44:37;9.85;;;6.55;;
50086;SDS011;35967;50.718;7.050;2022-07-22T19:54:39;9.85;;;7.20;;
50086;SDS011;35967;50.718;7.050;2022-07-22T20:04:40;13.23;;;8.00;;
50086;SDS011;35967;50.718;7.050;2022-07-22T20:14:42;15.60;;;8.52;;
50086;SDS011;35967;50.718;7.050;2022-07-22T20:24:45;12.63;;;5.75;;
50086;SDS011;35967;50.718;7.050;2022-07-22T20:34:47;13.88;;;8.85;;
50086;SDS011;35967;50.718;7.050;2022-07-22T20:44:49;14.25;;;8.50;;
50086;SDS011;35967;50.718;7.050;2022-07-22T20:54:50;15.00;;;8.75;;
50086;SDS011;35967;50.718;7.050;2022-07-22T21:04:52;13.05;;;9.15;;
50086;SDS011;35967;50.718;7.050;2022-07-22T21:14:54;14.57;;;7.68;;
50086;SDS011;35967;50.718;7.050;2022-07-22T21:25:00;12.10;;;7.93;;
50086;SDS011;35967;50.718;7.050;2022-07-22T21:35:02;13.32;;;8.38;;
50086;SDS011;35967;50.718;7.050;2022-07-22T21:45:05;12.35;;;9.20;;
50086;SDS011;35967;50.718;7.050;2022-07-22T21:55:07;12.43;;;8.48;;
50086;SDS011;35967;50.718;7.050;2022-07-22T22:05:10;13.43;;;10.25;;
50086;SDS011;35967;50.718;7.050;2022-07-22T22:15:12;14.27;;;8.98;;
50086;SDS011;35967;50.718;7.050;2022-07-22T22:25:14;12.77;;;8.95;;
50086;SDS011;35967;50.718;7.050;2022-07-22T22:35:15;19.58;;;12.52;;
50086;SDS011;35967;50.718;7.050;2022-07-22T22:45:17;12.90;;;8.98;;
50086;SDS011;35967;50.718;7.050;2022-07-22T22:55:19;15.65;;;9.98;;
50086;SDS011;35967;50.718;7.050;2022-07-22T23:05:21;20.42;;;11.75;;
50086;SDS011;35967;50.718;7.050;2022-07-22T23:15:22;22.42;;;13.55;;
50086;SDS011;35967;50.718;7.050;2022-07-22T23:25:24;27.13;;;15.07;;
50086;SDS011;35967;50.718;7.050;2022-07-22T23:35:46;20.60;;;12.20;;
50086;SDS011;35967;50.718;7.050;2022-07-22T23:45:48;19.10;;;12.50;;
50086;SDS011;35967;50.718;7.050;2022-07-22T23:55:51;23.75;;;12.55;;
